sensor_id;sensor_type;location;lat;lon;timestamp;pressure;altitude;pressure_sealevel;temperature;humidity
50550;BME280;36505;52.512;13.460;2023-11-22T00:01:51;102049.56;;;3.01;83.17
50550;BME280;36505;52.512;13.460;2023-11-22T00:04:16;102034.84;;;2.95;83.14
50550;BME280;36505;52.512;13.460;2023-11-22T00:06:43;102046.84;;;3.01;81.46
50550;BME280;36505;52.512;13.460;2023-11-22T00:09:08;102051.25;;;3.02;82.18
50550;BME280;36505;52.512;13.460;2023-11-22T00:11:34;102059.38;;;3.02;82.35
50550;BME280;36505;52.512;13.460;2023-11-22T00:14:00;102059.38;;;3.02;80.48
50550;BME280;36505;52.512;13.460;2023-11-22T00:16:25;102056.69;;;3.02;80.70
50550;BME280;36505;52.512;13.460;2023-11-22T00:18:51;102069.91;;;3.05;80.51
50550;BME280;36505;52.512;13.460;2023-11-22T00:21:16;102084.44;;;3.04;80.76
50550;BME280;36505;52.512;13.460;2023-11-22T00:23:41;102089.84;;;3.04;81.59
50550;BME280;36505;52.512;13.460;2023-11-22T00:26:08;102090.69;;;3.04;81.66
50550;BME280;36505;52.512;13.460;2023-11-22T00:28:33;102093.56;;;3.03;80.47
50550;BME280;36505;52.512;13.460;2023-11-22T00:30:59;102096.81;;;3.06;80.17
50550;BME280;36505;52.512;13.460;2023-11-22T00:33:25;102104.22;;;3.04;79.62
50550;BME280;36505;52.512;13.460;2023-11-22T00:35:51;102107.94;;;3.03;77.60
50550;BME280;36505;52.512;13.460;2023-11-22T00:38:18;102099.97;;;3.02;78.53
50550;BME280;36505;52.512;13.460;2023-11-22T00:40:44;102104.72;;;3.00;78.07
50550;BME280;36505;52.512;13.460;2023-11-22T00:43:09;102117.56;;;2.98;77.88
50550;BME280;36505;52.512;13.460;2023-11-22T00:45:35;102108.03;;;2.94;77.70
50550;BME280;36505;52.512;13.460;2023-11-22T00:48:00;102119.91;;;2.93;78.97
50550;BME280;36505;52.512;13.460;2023-11-22T00:50:26;102127.31;;;2.91;76.95
50550;BME280;36505;52.512;13.460;2023-11-22T00:52:51;102122.06;;;2.89;77.82
50550;BME280;36505;52.512;13.460;2023-11-22T00:55:17;102118.84;;;2.86;76.67
50550;BME280;36505;52.512;13.460;2023-11-22T00:57:42;102113.91;;;2.81;77.47
50550;BME280;36505;52.512;13.460;2023-11-22T01:00:09;102118.47;;;2.81;76.88
50550;BME280;36505;52.512;13.460;2023-11-22T01:02:37;102120.50;;;2.78;78.20
50550;BME280;36505;52.512;13.460;2023-11-22T01:05:06;102134.88;;;2.79;77.45
50550;BME280;36505;52.512;13.460;2023-11-22T01:07:40;102137.19;;;2.74;77.05
50550;BME280;36505;52.512;13.460;2023-11-22T01:10:06;102137.53;;;2.71;78.07
50550;BME280;36505;52.512;13.460;2023-11-22T01:12:32;102137.81;;;2.68;76.87
50550;BME280;36505;52.512;13.460;2023-11-22T01:14:58;102131.91;;;2.64;78.10
50550;BME280;36505;52.512;13.460;2023-11-22T01:17:23;102130.50;;;2.60;76.82
50550;BME280;36505;52.512;13.460;2023-11-22T01:19:49;102135.41;;;2.57;77.85
50550;BME280;36505;52.512;13.460;2023-11-22T01:22:16;102133.19;;;2.52;76.98
50550;BME280;36505;52.512;13.460;2023-11-22T01:24:42;102137.03;;;2.50;77.20
50550;BME280;36505;52.512;13.460;2023-11-22T01:27:08;102134.63;;;2.47;78.38
50550;BME280;36505;52.512;13.460;2023-11-22T01:29:33;102135.97;;;2.43;77.71
50550;BME280;36505;52.512;13.460;2023-11-22T01:31:59;102143.38;;;2.41;76.12
50550;BME280;36505;52.512;13.460;2023-11-22T01:34:25;102141.00;;;2.37;76.29
50550;BME280;36505;52.512;13.460;2023-11-22T01:36:51;102139.44;;;2.35;77.38
50550;BME280;36505;52.512;13.460;2023-11-22T01:39:16;102133.34;;;2.33;77.20
50550;BME280;36505;52.512;13.460;2023-11-22T01:41:45;102137.38;;;2.29;76.24
50550;BME280;36505;52.512;13.460;2023-11-22T01:44:10;102139.72;;;2.24;75.72
50550;BME280;36505;52.512;13.460;2023-11-22T01:46:36;102146.41;;;2.20;75.99
50550;BME280;36505;52.512;13.460;2023-11-22T01:49:02;102146.03;;;2.15;78.41
50550;BME280;36505;52.512;13.460;2023-11-22T01:51:28;102146.34;;;2.12;76.10
50550;BME280;36505;52.512;13.460;2023-11-22T01:53:56;102136.00;;;2.07;75.65
50550;BME280;36505;52.512;13.460;2023-11-22T01:56:23;102150.97;;;2.02;74.38
50550;BME280;36505;52.512;13.460;2023-11-22T01:58:49;102162.25;;;1.97;74.23
50550;BME280;36505;52.512;13.460;2023-11-22T02:01:15;102153.06;;;1.90;72.31
50550;BME280;36505;52.512;13.460;2023-11-22T02:03:41;102152.66;;;1.85;72.08
50550;BME280;36505;52.512;13.460;2023-11-22T02:06:08;102157.53;;;1.81;73.62
50550;BME280;36505;52.512;13.460;2023-11-22T02:08:35;102170.66;;;1.76;70.06
50550;BME280;36505;52.512;13.460;2023-11-22T02:11:01;102170.25;;;1.71;68.33
50550;BME280;36505;52.512;13.460;2023-11-22T02:13:49;102170.19;;;1.63;67.84
50550;BME280;36505;52.512;13.460;2023-11-22T02:16:16;102161.97;;;1.55;68.16
50550;BME280;36505;52.512;13.460;2023-11-22T02:18:44;102174.78;;;1.53;68.01
50550;BME280;36505;52.512;13.460;2023-11-22T02:21:10;102175.91;;;1.50;69.01
50550;BME280;36505;52.512;13.460;2023-11-22T02:23:36;102173.66;;;1.46;68.30
50550;BME280;36505;52.512;13.460;2023-11-22T02:26:01;102167.75;;;1.42;68.04
50550;BME280;36505;52.512;13.460;2023-11-22T02:28:27;102169.72;;;1.40;69.21
50550;BME280;36505;52.512;13.460;2023-11-22T02:30:53;102164.63;;;1.37;70.27
50550;BME280;36505;52.512;13.460;2023-11-22T02:33:19;102172.19;;;1.34;70.15
50550;BME280;36505;52.512;13.460;2023-11-22T02:35:45;102182.97;;;1.34;71.32
50550;BME280;36505;52.512;13.460;2023-11-22T02:38:11;102192.78;;;1.35;70.97
50550;BME280;36505;52.512;13.460;2023-11-22T02:40:36;102193.44;;;1.37;73.04
50550;BME280;36505;52.512;13.460;2023-11-22T02:43:02;102193.44;;;1.37;73.21
50550;BME280;36505;52.512;13.460;2023-11-22T02:45:32;102193.44;;;1.37;70.23
50550;BME280;36505;52.512;13.460;2023-11-22T02:47:58;102203.44;;;1.36;70.11
50550;BME280;36505;52.512;13.460;2023-11-22T02:50:24;102202.84;;;1.33;71.18
50550;BME280;36505;52.512;13.460;2023-11-22T02:52:50;102214.50;;;1.33;69.92
50550;BME280;36505;52.512;13.460;2023-11-22T02:55:16;102212.09;;;1.30;69.58
50550;BME280;36505;52.512;13.460;2023-11-22T02:57:42;102221.03;;;1.31;70.64
50550;BME280;36505;52.512;13.460;2023-11-22T03:00:10;102227.47;;;1.30;70.40
50550;BME280;36505;52.512;13.460;2023-11-22T03:02:40;102228.44;;;1.29;69.86
50550;BME280;36505;52.512;13.460;2023-11-22T03:05:08;102240.09;;;1.29;68.16
50550;BME280;36505;52.512;13.460;2023-11-22T03:07:38;102244.94;;;1.26;69.14
50550;BME280;36505;52.512;13.460;2023-11-22T03:10:04;102272.06;;;1.24;71.39
50550;BME280;36505;52.512;13.460;2023-11-22T03:12:30;102265.13;;;1.22;69.78
50550;BME280;36505;52.512;13.460;2023-11-22T03:14:55;102274.75;;;1.24;71.04
50550;BME280;36505;52.512;13.460;2023-11-22T03:17:27;102273.34;;;1.20;69.11
50550;BME280;36505;52.512;13.460;2023-11-22T03:19:56;102277.44;;;1.24;71.98
50550;BME280;36505;52.512;13.460;2023-11-22T03:22:25;102281.13;;;1.23;73.59
50550;BME280;36505;52.512;13.460;2023-11-22T03:24:51;102266.66;;;1.24;74.34
50550;BME280;36505;52.512;13.460;2023-11-22T03:27:16;102271.91;;;1.26;74.04
50550;BME280;36505;52.512;13.460;2023-11-22T03:29:42;102269.22;;;1.26;72.92
50550;BME280;36505;52.512;13.460;2023-11-22T03:32:07;102280.72;;;1.28;73.47
50550;BME280;36505;52.512;13.460;2023-11-22T03:34:32;102295.06;;;1.28;74.86
50550;BME280;36505;52.512;13.460;2023-11-22T03:36:58;102308.41;;;1.30;74.32
50550;BME280;36505;52.512;13.460;2023-11-22T03:39:23;102289.53;;;1.30;73.87
50550;BME280;36505;52.512;13.460;2023-11-22T03:41:50;102288.50;;;1.31;74.90
50550;BME280;36505;52.512;13.460;2023-11-22T03:44:16;102302.00;;;1.31;75.04
50550;BME280;36505;52.512;13.460;2023-11-22T03:46:41;102283.09;;;1.31;75.59
50550;BME280;36505;52.512;13.460;2023-11-22T03:49:07;102277.72;;;1.31;75.53
50550;BME280;36505;52.512;13.460;2023-11-22T03:51:32;102272.31;;;1.31;73.97
50550;BME280;36505;52.512;13.460;2023-11-22T03:53:58;102271.63;;;1.29;74.36
50550;BME280;36505;52.512;13.460;2023-11-22T03:56:23;102262.69;;;1.28;73.43
50550;BME280;36505;52.512;13.460;2023-11-22T03:58:49;102268.22;;;1.27;74.47
50550;BME280;36505;52.512;13.460;2023-11-22T04:01:14;102279.47;;;1.22;74.26
50550;BME280;36505;52.512;13.460;2023-11-22T04:03:41;102267.09;;;1.19;74.65
50550;BME280;36505;52.512;13.460;2023-11-22T04:06:06;102282.56;;;1.17;75.50
50550;BME280;36505;52.512;13.460;2023-11-22T04:08:32;102288.97;;;1.16;73.81
50550;BME280;36505;52.512;13.460;2023-11-22T04:10:57;102291.97;;;1.13;75.56
50550;BME280;36505;52.512;13.460;2023-11-22T04:13:23;102301.19;;;1.11;76.16
50550;BME280;36505;52.512;13.460;2023-11-22T04:15:50;102312.97;;;1.10;76.36
50550;BME280;36505;52.512;13.460;2023-11-22T04:18:15;102316.53;;;1.10;76.74
50550;BME280;36505;52.512;13.460;2023-11-22T04:20:41;102321.91;;;1.10;76.14
50550;BME280;36505;52.512;13.460;2023-11-22T04:23:07;102325.47;;;1.11;75.90
50550;BME280;36505;52.512;13.460;2023-11-22T04:25:36;102302.50;;;0.97;76.89
50550;BME280;36505;52.512;13.460;2023-11-22T04:28:02;102314.53;;;1.12;77.31
50550;BME280;36505;52.512;13.460;2023-11-22T04:30:27;102319.81;;;1.14;77.11
50550;BME280;36505;52.512;13.460;2023-11-22T04:32:52;102313.41;;;1.15;76.46
50550;BME280;36505;52.512;13.460;2023-11-22T04:35:18;102307.16;;;1.14;76.39
50550;BME280;36505;52.512;13.460;2023-11-22T04:37:43;102317.25;;;1.12;75.71
50550;BME280;36505;52.512;13.460;2023-11-22T04:40:09;102326.47;;;1.10;76.14
50550;BME280;36505;52.512;13.460;2023-11-22T04:42:36;102334.72;;;1.08;75.81
50550;BME280;36505;52.512;13.460;2023-11-22T04:45:03;102324.06;;;1.07;75.76
50550;BME280;36505;52.512;13.460;2023-11-22T04:47:28;102334.00;;;1.06;77.15
50550;BME280;36505;52.512;13.460;2023-11-22T04:49:54;102338.69;;;1.04;76.35
50550;BME280;36505;52.512;13.460;2023-11-22T04:52:19;102334.84;;;0.97;77.13
50550;BME280;36505;52.512;13.460;2023-11-22T04:54:45;102353.03;;;1.05;77.60
50550;BME280;36505;52.512;13.460;2023-11-22T04:57:10;102348.78;;;1.02;77.58
50550;BME280;36505;52.512;13.460;2023-11-22T04:59:35;102366.66;;;1.03;77.72
50550;BME280;36505;52.512;13.460;2023-11-22T05:02:01;102364.53;;;0.97;77.65
50550;BME280;36505;52.512;13.460;2023-11-22T05:04:26;102383.00;;;1.02;77.11
50550;BME280;36505;52.512;13.460;2023-11-22T05:06:53;102385.69;;;1.02;75.03
50550;BME280;36505;52.512;13.460;2023-11-22T05:09:19;102382.16;;;1.01;75.43
50550;BME280;36505;52.512;13.460;2023-11-22T05:11:45;102387.69;;;1.00;76.84
50550;BME280;36505;52.512;13.460;2023-11-22T05:14:10;102385.84;;;1.00;76.82
50550;BME280;36505;52.512;13.460;2023-11-22T05:16:36;102383.28;;;0.99;75.91
50550;BME280;36505;52.512;13.460;2023-11-22T05:19:02;102392.50;;;0.96;74.69
50550;BME280;36505;52.512;13.460;2023-11-22T05:21:27;102400.75;;;0.95;76.92
50550;BME280;36505;52.512;13.460;2023-11-22T05:23:52;102390.94;;;0.94;75.85
50550;BME280;36505;52.512;13.460;2023-11-22T05:26:20;102396.47;;;0.92;76.22
50550;BME280;36505;52.512;13.460;2023-11-22T05:28:46;102407.28;;;0.92;75.51
50550;BME280;36505;52.512;13.460;2023-11-22T05:31:13;102397.91;;;0.87;75.89
50550;BME280;36505;52.512;13.460;2023-11-22T05:33:39;102420.34;;;0.87;73.84
50550;BME280;36505;52.512;13.460;2023-11-22T05:36:05;102406.13;;;0.85;74.05
50550;BME280;36505;52.512;13.460;2023-11-22T05:38:31;102413.66;;;0.82;73.09
50550;BME280;36505;52.512;13.460;2023-11-22T05:40:59;102418.34;;;0.79;75.76
50550;BME280;36505;52.512;13.460;2023-11-22T05:43:25;102413.22;;;0.76;74.75
50550;BME280;36505;52.512;13.460;2023-11-22T05:45:52;102424.16;;;0.75;74.91
50550;BME280;36505;52.512;13.460;2023-11-22T05:48:18;102422.28;;;0.75;75.98
50550;BME280;36505;52.512;13.460;2023-11-22T05:50:45;102430.53;;;0.74;76.50
50550;BME280;36505;52.512;13.460;2023-11-22T05:53:11;102422.44;;;0.74;76.90
50550;BME280;36505;52.512;13.460;2023-11-22T05:55:36;102430.66;;;0.72;77.00
50550;BME280;36505;52.512;13.460;2023-11-22T05:58:03;102417.06;;;0.74;76.10
50550;BME280;36505;52.512;13.460;2023-11-22T06:00:28;102422.44;;;0.74;77.26
50550;BME280;36505;52.512;13.460;2023-11-22T06:02:54;102425.16;;;0.74;77.19
50550;BME280;36505;52.512;13.460;2023-11-22T06:05:20;102425.16;;;0.74;76.91
50550;BME280;36505;52.512;13.460;2023-11-22T06:07:46;102422.00;;;0.69;76.13
50550;BME280;36505;52.512;13.460;2023-11-22T06:10:12;102425.41;;;0.71;76.24
50550;BME280;36505;52.512;13.460;2023-11-22T06:12:39;102437.91;;;0.72;75.62
50550;BME280;36505;52.512;13.460;2023-11-22T06:15:05;102426.13;;;0.73;77.31
50550;BME280;36505;52.512;13.460;2023-11-22T06:17:31;102420.00;;;0.71;76.71
50550;BME280;36505;52.512;13.460;2023-11-22T06:19:56;102418.88;;;0.64;77.22
50550;BME280;36505;52.512;13.460;2023-11-22T06:22:22;102426.53;;;0.68;77.60
50550;BME280;36505;52.512;13.460;2023-11-22T06:24:47;102423.84;;;0.68;77.19
50550;BME280;36505;52.512;13.460;2023-11-22T06:27:13;102425.72;;;0.68;77.28
50550;BME280;36505;52.512;13.460;2023-11-22T06:29:40;102426.09;;;0.63;75.62
50550;BME280;36505;52.512;13.460;2023-11-22T06:32:06;102437.47;;;0.67;76.40
50550;BME280;36505;52.512;13.460;2023-11-22T06:34:32;102443.72;;;0.67;75.66
50550;BME280;36505;52.512;13.460;2023-11-22T06:36:57;102446.53;;;0.66;77.45
50550;BME280;36505;52.512;13.460;2023-11-22T06:39:22;102439.56;;;0.63;77.06
50550;BME280;36505;52.512;13.460;2023-11-22T06:41:50;102468.25;;;0.64;77.67
50550;BME280;36505;52.512;13.460;2023-11-22T06:44:15;102469.09;;;0.65;78.17
50550;BME280;36505;52.512;13.460;2023-11-22T06:46:41;102476.47;;;0.63;77.76
50550;BME280;36505;52.512;13.460;2023-11-22T06:49:06;102487.84;;;0.66;78.53
50550;BME280;36505;52.512;13.460;2023-11-22T06:51:32;102487.84;;;0.66;78.19
50550;BME280;36505;52.512;13.460;2023-11-22T06:53:57;102498.50;;;0.68;79.00
50550;BME280;36505;52.512;13.460;2023-11-22T06:56:23;102508.72;;;0.74;79.14
50550;BME280;36505;52.512;13.460;2023-11-22T06:58:48;102523.06;;;0.84;79.25
50550;BME280;36505;52.512;13.460;2023-11-22T07:01:13;102497.97;;;0.93;80.21
50550;BME280;36505;52.512;13.460;2023-11-22T07:03:40;102501.44;;;1.14;82.55
50550;BME280;36505;52.512;13.460;2023-11-22T07:06:05;102514.06;;;1.33;84.39
50550;BME280;36505;52.512;13.460;2023-11-22T07:08:33;102525.03;;;1.41;85.40
50550;BME280;36505;52.512;13.460;2023-11-22T07:10:59;102524.31;;;1.49;81.70
50550;BME280;36505;52.512;13.460;2023-11-22T07:13:25;102529.28;;;1.63;83.01
50550;BME280;36505;52.512;13.460;2023-11-22T07:15:52;102530.69;;;1.86;87.87
50550;BME280;36505;52.512;13.460;2023-11-22T07:18:19;102522.97;;;2.11;93.53
50550;BME280;36505;52.512;13.460;2023-11-22T07:20:44;102518.03;;;2.33;96.60
50550;BME280;36505;52.512;13.460;2023-11-22T07:23:10;102527.78;;;2.54;98.04
50550;BME280;36505;52.512;13.460;2023-11-22T07:25:39;102531.06;;;2.57;95.92
50550;BME280;36505;52.512;13.460;2023-11-22T07:28:04;102525.34;;;2.60;93.64
50550;BME280;36505;52.512;13.460;2023-11-22T07:30:29;102535.47;;;2.58;88.69
50550;BME280;36505;52.512;13.460;2023-11-22T07:32:58;102526.84;;;2.45;82.49
50550;BME280;36505;52.512;13.460;2023-11-22T07:35:24;102535.66;;;2.47;79.97
50550;BME280;36505;52.512;13.460;2023-11-22T07:37:51;102546.34;;;2.39;78.67
50550;BME280;36505;52.512;13.460;2023-11-22T07:40:17;102554.19;;;2.32;78.35
50550;BME280;36505;52.512;13.460;2023-11-22T07:42:44;102551.22;;;2.26;78.59
50550;BME280;36505;52.512;13.460;2023-11-22T07:45:10;102557.22;;;2.20;78.62
50550;BME280;36505;52.512;13.460;2023-11-22T07:47:37;102557.78;;;2.14;77.67
50550;BME280;36505;52.512;13.460;2023-11-22T07:50:07;102560.94;;;2.09;78.01
50550;BME280;36505;52.512;13.460;2023-11-22T07:52:33;102548.16;;;2.02;78.32
50550;BME280;36505;52.512;13.460;2023-11-22T07:54:59;102545.59;;;2.00;78.17
50550;BME280;36505;52.512;13.460;2023-11-22T07:57:25;102533.06;;;1.99;77.96
50550;BME280;36505;52.512;13.460;2023-11-22T07:59:50;102521.41;;;1.98;78.36
50550;BME280;36505;52.512;13.460;2023-11-22T08:02:20;102511.75;;;1.96;78.17
50550;BME280;36505;52.512;13.460;2023-11-22T08:04:45;102508.47;;;1.92;77.29
50550;BME280;36505;52.512;13.460;2023-11-22T08:07:13;102514.88;;;1.91;76.61
50550;BME280;36505;52.512;13.460;2023-11-22T08:09:39;102509.47;;;1.91;77.07
50550;BME280;36505;52.512;13.460;2023-11-22T08:12:06;102501.53;;;1.90;76.44
50550;BME280;36505;52.512;13.460;2023-11-22T08:14:32;102513.03;;;1.92;75.91
50550;BME280;36505;52.512;13.460;2023-11-22T08:16:58;102523.69;;;1.93;76.06
50550;BME280;36505;52.512;13.460;2023-11-22T08:19:23;102513.75;;;1.94;76.50
50550;BME280;36505;52.512;13.460;2023-11-22T08:21:49;102522.44;;;1.97;77.31
50550;BME280;36505;52.512;13.460;2023-11-22T08:24:15;102521.28;;;2.00;73.85
50550;BME280;36505;52.512;13.460;2023-11-22T08:26:40;102522.25;;;1.99;73.09
50550;BME280;36505;52.512;13.460;2023-11-22T08:29:06;102534.91;;;1.98;72.31
50550;BME280;36505;52.512;13.460;2023-11-22T08:31:33;102532.38;;;1.97;72.16
50550;BME280;36505;52.512;13.460;2023-11-22T08:33:59;102516.59;;;1.92;74.42
50550;BME280;36505;52.512;13.460;2023-11-22T08:36:24;102529.97;;;1.94;74.97
50550;BME280;36505;52.512;13.460;2023-11-22T08:38:50;102538.06;;;1.94;75.80
50550;BME280;36505;52.512;13.460;2023-11-22T08:41:15;102538.38;;;1.91;72.07
50550;BME280;36505;52.512;13.460;2023-11-22T08:43:41;102544.91;;;1.88;71.20
50550;BME280;36505;52.512;13.460;2023-11-22T08:46:07;102527.13;;;1.86;74.01
50550;BME280;36505;52.512;13.460;2023-11-22T08:48:34;102520.19;;;1.83;71.82
50550;BME280;36505;52.512;13.460;2023-11-22T08:51:00;102530.97;;;1.83;71.57
50550;BME280;36505;52.512;13.460;2023-11-22T08:53:26;102518.88;;;1.78;72.47
50550;BME280;36505;52.512;13.460;2023-11-22T08:55:53;102544.06;;;1.88;70.14
50550;BME280;36505;52.512;13.460;2023-11-22T08:58:20;102550.00;;;1.91;70.89
50550;BME280;36505;52.512;13.460;2023-11-22T09:00:46;102549.28;;;1.99;68.54
50550;BME280;36505;52.512;13.460;2023-11-22T09:03:12;102555.81;;;2.06;69.58
50550;BME280;36505;52.512;13.460;2023-11-22T09:05:41;102562.63;;;2.20;67.34
50550;BME280;36505;52.512;13.460;2023-11-22T09:08:08;102552.78;;;2.28;65.96
50550;BME280;36505;52.512;13.460;2023-11-22T09:10:38;102561.28;;;2.43;68.00
50550;BME280;36505;52.512;13.460;2023-11-22T09:13:04;102562.66;;;2.57;67.61
50550;BME280;36505;52.512;13.460;2023-11-22T09:15:31;102562.19;;;2.71;69.59
50550;BME280;36505;52.512;13.460;2023-11-22T09:17:59;102557.28;;;2.84;69.66
50550;BME280;36505;52.512;13.460;2023-11-22T09:20:25;102539.69;;;2.98;72.20
50550;BME280;36505;52.512;13.460;2023-11-22T09:22:52;102544.88;;;3.09;72.90
50550;BME280;36505;52.512;13.460;2023-11-22T09:25:25;102543.66;;;3.21;72.12
50550;BME280;36505;52.512;13.460;2023-11-22T09:27:53;102537.34;;;3.30;70.42
50550;BME280;36505;52.512;13.460;2023-11-22T09:30:25;102529.44;;;3.37;67.96
50550;BME280;36505;52.512;13.460;2023-11-22T09:35:32;102513.00;;;3.48;63.62
50550;BME280;36505;52.512;13.460;2023-11-22T09:38:03;102511.88;;;3.58;66.68
50550;BME280;36505;52.512;13.460;2023-11-22T09:40:30;102519.25;;;3.66;64.32
50550;BME280;36505;52.512;13.460;2023-11-22T09:43:00;102513.03;;;3.74;64.42
50550;BME280;36505;52.512;13.460;2023-11-22T09:45:27;102509.22;;;3.84;64.90
50550;BME280;36505;52.512;13.460;2023-11-22T09:47:55;102496.97;;;3.98;68.76
50550;BME280;36505;52.512;13.460;2023-11-22T09:50:48;102487.88;;;4.07;69.90
50550;BME280;36505;52.512;13.460;2023-11-22T09:53:22;102478.09;;;4.14;69.01
50550;BME280;36505;52.512;13.460;2023-11-22T09:55:50;102491.00;;;4.20;67.48
50550;BME280;36505;52.512;13.460;2023-11-22T09:58:16;102491.53;;;4.24;66.55
50550;BME280;36505;52.512;13.460;2023-11-22T10:00:42;102503.63;;;4.29;68.21
50550;BME280;36505;52.512;13.460;2023-11-22T10:03:09;102514.50;;;4.37;70.68
50550;BME280;36505;52.512;13.460;2023-11-22T10:05:39;102526.03;;;4.40;68.69
50550;BME280;36505;52.512;13.460;2023-11-22T10:08:05;102524.31;;;4.38;67.83
50550;BME280;36505;52.512;13.460;2023-11-22T10:10:31;102542.00;;;4.43;67.60
50550;BME280;36505;52.512;13.460;2023-11-22T10:12:57;102544.53;;;4.44;67.33
50550;BME280;36505;52.512;13.460;2023-11-22T10:15:23;102534.53;;;4.45;68.35
50550;BME280;36505;52.512;13.460;2023-11-22T10:17:57;102504.03;;;4.43;70.91
50550;BME280;36505;52.512;13.460;2023-11-22T10:20:36;102510.16;;;4.53;68.58
50550;BME280;36505;52.512;13.460;2023-11-22T10:23:02;102525.13;;;4.65;71.09
50550;BME280;36505;52.512;13.460;2023-11-22T10:25:28;102527.84;;;4.65;66.54
50550;BME280;36505;52.512;13.460;2023-11-22T10:27:54;102538.91;;;4.71;70.26
50550;BME280;36505;52.512;13.460;2023-11-22T10:30:20;102539.59;;;4.73;70.21
50550;BME280;36505;52.512;13.460;2023-11-22T10:32:45;102533.88;;;4.76;67.64
50550;BME280;36505;52.512;13.460;2023-11-22T10:35:11;102543.53;;;4.79;71.02
50550;BME280;36505;52.512;13.460;2023-11-22T10:37:41;102546.94;;;4.81;69.22
50550;BME280;36505;52.512;13.460;2023-11-22T10:40:08;102534.06;;;4.83;71.05
50550;BME280;36505;52.512;13.460;2023-11-22T10:42:36;102531.50;;;4.82;70.61
50550;BME280;36505;52.512;13.460;2023-11-22T10:45:05;102531.66;;;4.80;67.54
50550;BME280;36505;52.512;13.460;2023-11-22T10:47:37;102527.25;;;4.79;68.52
50550;BME280;36505;52.512;13.460;2023-11-22T10:50:05;102530.97;;;4.78;71.07
50550;BME280;36505;52.512;13.460;2023-11-22T10:52:35;102539.97;;;4.78;71.31
50550;BME280;36505;52.512;13.460;2023-11-22T10:55:03;102542.69;;;4.78;72.62
50550;BME280;36505;52.512;13.460;2023-11-22T10:57:36;102548.66;;;4.82;73.92
50550;BME280;36505;52.512;13.460;2023-11-22T11:00:05;102547.78;;;4.82;73.74
50550;BME280;36505;52.512;13.460;2023-11-22T11:02:36;102547.09;;;4.80;72.82
50550;BME280;36505;52.512;13.460;2023-11-22T11:05:16;102545.56;;;4.77;73.47
50550;BME280;36505;52.512;13.460;2023-11-22T11:07:48;102537.22;;;4.70;72.11
50550;BME280;36505;52.512;13.460;2023-11-22T11:10:15;102536.84;;;4.65;70.93
50550;BME280;36505;52.512;13.460;2023-11-22T11:12:41;102541.22;;;4.58;70.68
50550;BME280;36505;52.512;13.460;2023-11-22T11:15:07;102544.28;;;4.55;69.96
50550;BME280;36505;52.512;13.460;2023-11-22T11:17:33;102531.34;;;4.49;68.26
50550;BME280;36505;52.512;13.460;2023-11-22T11:20:00;102514.34;;;4.39;67.44
50550;BME280;36505;52.512;13.460;2023-11-22T11:22:25;102520.31;;;4.43;67.88
50550;BME280;36505;52.512;13.460;2023-11-22T11:25:00;102517.19;;;4.37;68.16
50550;BME280;36505;52.512;13.460;2023-11-22T11:27:26;102514.13;;;4.32;67.29
50550;BME280;36505;52.512;13.460;2023-11-22T11:29:51;102511.56;;;4.31;67.07
50550;BME280;36505;52.512;13.460;2023-11-22T11:32:31;102513.44;;;4.30;67.69
50550;BME280;36505;52.512;13.460;2023-11-22T11:34:57;102498.81;;;4.23;67.92
50550;BME280;36505;52.512;13.460;2023-11-22T11:37:25;102499.16;;;4.20;66.97
50550;BME280;36505;52.512;13.460;2023-11-22T11:39:54;102483.38;;;4.16;67.20
50550;BME280;36505;52.512;13.460;2023-11-22T11:42:19;102473.84;;;4.12;67.46
50550;BME280;36505;52.512;13.460;2023-11-22T11:45:04;102484.16;;;4.08;67.77
50550;BME280;36505;52.512;13.460;2023-11-22T11:47:31;102491.91;;;4.03;67.67
50550;BME280;36505;52.512;13.460;2023-11-22T11:50:00;102476.81;;;4.01;67.93
50550;BME280;36505;52.512;13.460;2023-11-22T11:52:26;102455.59;;;3.96;67.66
50550;BME280;36505;52.512;13.460;2023-11-22T11:54:51;102455.78;;;3.94;67.50
50550;BME280;36505;52.512;13.460;2023-11-22T11:57:16;102452.38;;;3.92;67.69
50550;BME280;36505;52.512;13.460;2023-11-22T11:59:42;102444.41;;;3.91;67.79
50550;BME280;36505;52.512;13.460;2023-11-22T12:02:08;102443.38;;;3.92;67.40
50550;BME280;36505;52.512;13.460;2023-11-22T12:04:33;102439.81;;;3.91;68.49
50550;BME280;36505;52.512;13.460;2023-11-22T12:06:58;102433.56;;;3.91;68.03
50550;BME280;36505;52.512;13.460;2023-11-22T12:09:25;102436.25;;;3.91;67.29
50550;BME280;36505;52.512;13.460;2023-11-22T12:11:51;102429.84;;;3.92;66.64
50550;BME280;36505;52.512;13.460;2023-11-22T12:14:21;102417.28;;;3.91;66.78
50550;BME280;36505;52.512;13.460;2023-11-22T12:16:50;102405.94;;;3.87;67.47
50550;BME280;36505;52.512;13.460;2023-11-22T12:19:26;102400.19;;;3.90;68.01
50550;BME280;36505;52.512;13.460;2023-11-22T12:21:56;102395.63;;;3.91;67.91
50550;BME280;36505;52.512;13.460;2023-11-22T12:24:23;102385.13;;;3.88;65.56
50550;BME280;36505;52.512;13.460;2023-11-22T12:26:50;102377.13;;;3.86;66.45
50550;BME280;36505;52.512;13.460;2023-11-22T12:29:16;102362.03;;;3.84;67.85
50550;BME280;36505;52.512;13.460;2023-11-22T12:31:46;102357.09;;;3.79;66.98
50550;BME280;36505;52.512;13.460;2023-11-22T12:34:14;102368.59;;;3.73;66.92
50550;BME280;36505;52.512;13.460;2023-11-22T12:36:40;102369.25;;;3.67;64.52
50550;BME280;36505;52.512;13.460;2023-11-22T12:39:09;102361.06;;;3.59;64.81
50550;BME280;36505;52.512;13.460;2023-11-22T12:41:45;102365.91;;;3.55;66.11
50550;BME280;36505;52.512;13.460;2023-11-22T12:44:12;102378.78;;;3.53;66.33
50550;BME280;36505;52.512;13.460;2023-11-22T12:46:48;102389.78;;;3.52;68.46
50550;BME280;36505;52.512;13.460;2023-11-22T12:49:16;102405.19;;;3.51;66.82
50550;BME280;36505;52.512;13.460;2023-11-22T12:51:50;102401.13;;;3.55;68.40